createdAt,value
2022-12-03T00:00:30.344Z,13.82
2022-12-03T00:02:31.849Z,9.43
2022-12-03T00:04:33.364Z,8.80
2022-12-03T00:06:35.007Z,12.95
2022-12-03T00:08:36.494Z,12.25
2022-12-03T00:10:38.227Z,7.72
2022-12-03T00:12:39.850Z,13.57
2022-12-03T00:14:44.587Z,10.23
2022-12-03T00:16:46.566Z,11.30
2022-12-03T00:18:47.958Z,10.52
2022-12-03T00:20:49.502Z,7.78
2022-12-03T00:22:51.289Z,9.38
2022-12-03T00:24:52.929Z,7.53
2022-12-03T00:26:54.858Z,8.32
2022-12-03T00:28:57.655Z,6.25
2022-12-03T00:30:59.179Z,7.15
2022-12-03T00:33:00.715Z,11.52
2022-12-03T00:35:02.561Z,12.95
2022-12-03T00:37:04.002Z,7.55
2022-12-03T00:39:05.534Z,13.88
2022-12-03T00:41:07.251Z,11.65
2022-12-03T00:43:08.944Z,8.07
2022-12-03T00:45:10.892Z,8.90
2022-12-03T00:47:12.895Z,9.95
2022-12-03T00:49:14.443Z,11.20
2022-12-03T00:51:15.928Z,15.02
2022-12-03T00:53:17.410Z,10.57
2022-12-03T00:55:18.828Z,8.57
2022-12-03T00:57:20.314Z,8.45
2022-12-03T00:59:21.761Z,14.38
2022-12-03T01:01:24.281Z,7.97
2022-12-03T01:03:28.330Z,12.77
2022-12-03T01:05:41.414Z,7.00
2022-12-03T01:07:53.604Z,8.82
2022-12-03T01:10:12.135Z,7.85
2022-12-03T01:12:30.269Z,9.32
2022-12-03T01:14:46.344Z,7.75
2022-12-03T01:17:01.321Z,7.82
2022-12-03T01:19:16.235Z,11.77
2022-12-03T01:21:28.225Z,10.73
2022-12-03T01:23:42.877Z,15.10
2022-12-03T01:25:57.118Z,12.35
2022-12-03T01:28:11.360Z,12.43
2022-12-03T01:30:25.577Z,12.88
2022-12-03T01:32:38.343Z,12.45
2022-12-03T01:34:56.655Z,10.43
2022-12-03T01:37:10.755Z,9.65
2022-12-03T01:39:22.924Z,9.30
2022-12-03T01:41:40.519Z,12.15
2022-12-03T01:43:45.993Z,11.75
2022-12-03T01:45:47.487Z,13.10
2022-12-03T01:47:49.196Z,10.55
2022-12-03T01:50:00.030Z,9.43
2022-12-03T01:52:01.642Z,8.57
2022-12-03T01:54:03.432Z,7.15
2022-12-03T01:56:05.006Z,6.57
2022-12-03T01:58:06.468Z,7.45
2022-12-03T02:00:11.597Z,11.35
2022-12-03T02:02:33.551Z,6.90
2022-12-03T02:04:34.997Z,11.20
2022-12-03T02:06:36.617Z,8.40
2022-12-03T02:08:40.712Z,9.27
2022-12-03T02:10:42.411Z,12.00
2022-12-03T02:12:50.068Z,11.88
2022-12-03T02:14:52.304Z,14.23
2022-12-03T02:16:54.036Z,11.95
2022-12-03T02:18:56.672Z,15.20
2022-12-03T02:21:03.201Z,14.20
2022-12-03T02:23:17.511Z,13.88
2022-12-03T02:25:23.729Z,14.90
2022-12-03T02:27:26.851Z,16.40
2022-12-03T02:29:28.566Z,17.92
2022-12-03T02:31:30.118Z,14.35
2022-12-03T02:33:32.243Z,15.02
2022-12-03T02:35:34.794Z,16.88
2022-12-03T02:37:36.671Z,15.15
2022-12-03T02:39:40.085Z,19.58
2022-12-03T02:41:59.900Z,15.70
2022-12-03T02:44:01.753Z,17.35
2022-12-03T02:46:03.729Z,14.95
2022-12-03T02:48:08.172Z,15.13
2022-12-03T02:50:11.051Z,10.93
2022-12-03T02:52:12.525Z,14.57
2022-12-03T02:54:14.089Z,15.35
2022-12-03T02:56:17.213Z,16.15
2022-12-03T02:58:19.145Z,17.85
2022-12-03T03:00:20.922Z,16.85
2022-12-03T03:02:22.680Z,16.85
2022-12-03T03:04:24.896Z,13.15
2022-12-03T03:06:26.394Z,14.95
2022-12-03T03:08:28.747Z,13.00
2022-12-03T03:10:31.088Z,12.00
2022-12-03T03:12:38.830Z,12.13
2022-12-03T03:14:40.786Z,10.60
2022-12-03T03:16:42.271Z,11.52
2022-12-03T03:18:43.792Z,10.82
2022-12-03T03:20:45.463Z,10.95
2022-12-03T03:22:47.051Z,14.50
2022-12-03T03:24:48.493Z,13.13
2022-12-03T03:26:50.255Z,16.73
2022-12-03T03:28:51.970Z,18.90
2022-12-03T03:30:53.877Z,15.85
2022-12-03T03:32:55.329Z,15.23
2022-12-03T03:34:57.004Z,20.33
2022-12-03T03:36:58.540Z,14.10
2022-12-03T03:39:00.243Z,17.10
2022-12-03T03:41:03.171Z,14.18
2022-12-03T03:43:05.480Z,17.95
2022-12-03T03:45:07.480Z,19.20
2022-12-03T03:47:09.151Z,16.20
2022-12-03T03:49:10.674Z,15.82
2022-12-03T03:51:12.547Z,13.65
2022-12-03T03:53:14.832Z,9.80
2022-12-03T03:55:16.446Z,14.95
2022-12-03T03:57:18.060Z,15.52
2022-12-03T03:59:19.514Z,12.95
2022-12-03T04:01:21.260Z,16.60
2022-12-03T04:03:22.779Z,15.68
2022-12-03T04:05:24.734Z,20.10
2022-12-03T04:07:26.285Z,16.48
2022-12-03T04:09:39.368Z,18.05
2022-12-03T04:12:04.511Z,16.17
2022-12-03T04:14:20.840Z,17.90
2022-12-03T04:16:36.636Z,15.40
2022-12-03T04:18:55.262Z,18.25
2022-12-03T04:21:27.363Z,12.57
2022-12-03T04:23:44.641Z,15.52
2022-12-03T04:26:15.361Z,12.32
2022-12-03T04:28:48.797Z,12.02
2022-12-03T04:31:04.516Z,11.73
2022-12-03T04:33:33.162Z,12.05
2022-12-03T04:35:52.950Z,16.08
2022-12-03T04:38:09.865Z,17.25
2022-12-03T04:40:41.488Z,16.63
2022-12-03T04:42:57.131Z,20.38
2022-12-03T04:45:09.669Z,14.20
2022-12-03T04:47:24.388Z,15.77
2022-12-03T04:49:29.455Z,14.60
2022-12-03T04:51:30.891Z,14.40
2022-12-03T04:53:33.713Z,12.10
2022-12-03T04:55:37.513Z,13.63
2022-12-03T04:57:38.942Z,14.63
2022-12-03T04:59:40.352Z,13.27
2022-12-03T05:01:42.064Z,13.57
2022-12-03T05:03:43.509Z,11.52
2022-12-03T05:05:45.344Z,11.40
2022-12-03T05:07:46.885Z,11.88
2022-12-03T05:09:48.405Z,11.13
2022-12-03T05:11:49.851Z,11.68
2022-12-03T05:13:52.523Z,14.73
2022-12-03T05:15:53.980Z,11.07
2022-12-03T05:17:55.420Z,10.55
2022-12-03T05:20:15.764Z,11.55
2022-12-03T05:22:17.443Z,17.60
2022-12-03T05:24:18.846Z,12.75
2022-12-03T05:26:20.321Z,9.98
2022-12-03T05:28:23.214Z,11.90
2022-12-03T05:30:24.950Z,9.48
2022-12-03T05:32:26.414Z,10.60
2022-12-03T05:34:27.879Z,10.88
2022-12-03T05:36:29.500Z,11.23
2022-12-03T05:38:30.947Z,16.80
2022-12-03T05:40:32.643Z,13.02
2022-12-03T05:42:52.892Z,14.38
2022-12-03T05:44:54.759Z,16.15
2022-12-03T05:46:56.407Z,13.32
2022-12-03T05:48:57.808Z,10.00
2022-12-03T05:50:59.289Z,11.52
2022-12-03T05:53:00.894Z,13.38
2022-12-03T05:55:02.606Z,10.05
2022-12-03T05:57:04.219Z,13.05
2022-12-03T05:59:05.960Z,13.27
2022-12-03T06:01:07.379Z,14.13
2022-12-03T06:03:08.882Z,12.77
2022-12-03T06:05:11.055Z,11.88
2022-12-03T06:07:14.352Z,11.32
2022-12-03T06:09:16.004Z,14.73
2022-12-03T06:11:17.648Z,12.07
2022-12-03T06:13:19.126Z,13.98
2022-12-03T06:15:20.555Z,16.65
2022-12-03T06:17:21.990Z,15.20
2022-12-03T06:19:23.408Z,13.07
2022-12-03T06:21:24.833Z,9.93
2022-12-03T06:23:26.267Z,11.73
2022-12-03T06:25:27.662Z,12.50
2022-12-03T06:27:29.086Z,10.48
2022-12-03T06:29:30.686Z,16.95
2022-12-03T06:31:33.009Z,14.73
2022-12-03T06:33:34.535Z,14.52
2022-12-03T06:35:36.011Z,12.02
2022-12-03T06:37:37.464Z,15.25
2022-12-03T06:39:38.979Z,18.45
2022-12-03T06:41:40.682Z,17.80
2022-12-03T06:43:42.162Z,14.95
2022-12-03T06:45:47.708Z,14.60
2022-12-03T06:47:49.794Z,15.50
2022-12-03T06:49:51.218Z,14.60
2022-12-03T06:51:52.677Z,16.83
2022-12-03T06:53:54.173Z,13.68
2022-12-03T06:55:55.627Z,14.80
2022-12-03T06:57:57.145Z,15.10
2022-12-03T06:59:58.618Z,15.80
2022-12-03T07:02:00.907Z,16.80
2022-12-03T07:04:02.380Z,21.35
2022-12-03T07:06:03.949Z,19.27
2022-12-03T07:08:05.780Z,21.60
2022-12-03T07:10:07.989Z,18.90
2022-12-03T07:12:09.427Z,16.00
2022-12-03T07:14:12.417Z,20.75
2022-12-03T07:16:21.249Z,21.07
2022-12-03T07:18:35.842Z,22.48
2022-12-03T07:20:49.228Z,20.95
2022-12-03T07:23:05.674Z,23.30
2022-12-03T07:25:23.522Z,20.88
2022-12-03T07:27:38.302Z,19.63
2022-12-03T07:29:53.064Z,26.08
2022-12-03T07:32:09.041Z,17.65
2022-12-03T07:34:23.850Z,17.77
2022-12-03T07:36:38.456Z,21.58
2022-12-03T07:38:54.454Z,19.52
2022-12-03T07:41:08.862Z,17.30
2022-12-03T07:43:24.575Z,19.42
2022-12-03T07:45:41.267Z,21.42
2022-12-03T07:47:54.821Z,20.23
2022-12-03T07:50:09.628Z,18.83
2022-12-03T07:52:25.139Z,19.20
2022-12-03T07:54:33.314Z,16.98
2022-12-03T07:56:36.062Z,15.38
2022-12-03T07:58:37.751Z,21.50
2022-12-03T08:00:39.251Z,20.70
2022-12-03T08:02:41.337Z,17.30
2022-12-03T08:04:42.839Z,19.00
2022-12-03T08:06:44.843Z,22.52
2022-12-03T08:08:46.251Z,26.17
2022-12-03T08:10:48.336Z,26.33
2022-12-03T08:12:49.831Z,19.83
2022-12-03T08:14:51.509Z,22.55
2022-12-03T08:16:53.142Z,18.30
2022-12-03T08:18:54.876Z,23.00
2022-12-03T08:20:56.311Z,22.20
2022-12-03T08:22:57.891Z,27.00
2022-12-03T08:24:59.606Z,18.90
2022-12-03T08:27:01.040Z,26.25
2022-12-03T08:29:02.504Z,25.98
2022-12-03T08:31:12.872Z,17.85
2022-12-03T08:33:23.537Z,19.70
2022-12-03T08:35:27.438Z,22.85
2022-12-03T08:37:29.439Z,18.75
2022-12-03T08:39:41.944Z,17.88
2022-12-03T08:42:02.141Z,18.38
2022-12-03T08:44:29.960Z,17.98
2022-12-03T08:46:31.609Z,16.70
2022-12-03T08:48:34.440Z,17.08
2022-12-03T08:50:39.686Z,15.00
2022-12-03T08:52:41.125Z,21.13
2022-12-03T08:54:43.810Z,18.33
2022-12-03T08:56:45.400Z,21.00
2022-12-03T08:58:47.744Z,13.90
2022-12-03T09:00:54.023Z,16.77
2022-12-03T09:02:58.626Z,13.90
2022-12-03T09:05:12.020Z,12.50
2022-12-03T09:07:13.553Z,14.85
2022-12-03T09:09:15.230Z,13.27
2022-12-03T09:11:16.898Z,12.65
2022-12-03T09:13:18.626Z,18.55
2022-12-03T09:15:20.159Z,18.20
2022-12-03T09:17:21.618Z,19.60
2022-12-03T09:19:24.118Z,19.83
2022-12-03T09:21:26.006Z,14.68
2022-12-03T09:23:27.513Z,15.57
2022-12-03T09:25:29.068Z,14.40
2022-12-03T09:27:30.471Z,16.42
2022-12-03T09:29:31.958Z,13.55
2022-12-03T09:31:34.426Z,12.93
2022-12-03T09:33:35.923Z,12.73
2022-12-03T09:35:37.569Z,13.80
2022-12-03T09:37:39.059Z,15.30
2022-12-03T09:39:40.540Z,12.48
2022-12-03T09:41:42.199Z,14.88
2022-12-03T09:44:03.206Z,16.05
2022-12-03T09:46:05.913Z,12.90
2022-12-03T09:48:07.468Z,12.80
2022-12-03T09:50:20.146Z,16.13
2022-12-03T09:52:27.091Z,14.38
2022-12-03T09:54:30.299Z,10.23
2022-12-03T09:56:31.916Z,11.32
2022-12-03T09:58:35.006Z,7.28
2022-12-03T10:00:36.748Z,11.48
2022-12-03T10:02:38.328Z,12.32
2022-12-03T10:04:39.835Z,14.02
2022-12-03T10:06:45.882Z,14.68
2022-12-03T10:08:49.367Z,9.75
2022-12-03T10:10:52.456Z,14.25
2022-12-03T10:12:54.932Z,14.85
2022-12-03T10:14:56.939Z,10.85
2022-12-03T10:16:58.930Z,9.77
2022-12-03T10:19:00.674Z,11.95
2022-12-03T10:21:02.796Z,9.82
2022-12-03T10:23:07.401Z,11.70
2022-12-03T10:25:37.300Z,10.40
2022-12-03T10:28:15.167Z,8.05
2022-12-03T10:30:35.485Z,9.05
2022-12-03T10:33:00.464Z,7.93
2022-12-03T10:35:24.512Z,8.73
2022-12-03T10:37:50.151Z,11.23
2022-12-03T10:40:21.116Z,10.23
2022-12-03T10:42:49.950Z,9.02
2022-12-03T10:45:45.738Z,9.60
2022-12-03T10:48:23.516Z,11.07
2022-12-03T10:50:56.333Z,11.75
2022-12-03T10:53:20.875Z,7.22
2022-12-03T10:55:25.434Z,7.32
2022-12-03T10:57:27.179Z,9.38
2022-12-03T10:59:31.143Z,7.68
2022-12-03T11:01:32.904Z,9.32
2022-12-03T11:03:35.132Z,6.32
2022-12-03T11:05:37.110Z,6.97
2022-12-03T11:07:39.037Z,7.38
2022-12-03T11:09:42.997Z,7.93
2022-12-03T11:11:44.823Z,9.25
2022-12-03T11:13:48.655Z,6.78
2022-12-03T11:15:50.262Z,6.45
2022-12-03T11:17:53.034Z,9.07
2022-12-03T11:19:54.699Z,6.97
2022-12-03T11:22:06.952Z,5.97
2022-12-03T11:24:17.420Z,8.95
2022-12-03T11:26:38.811Z,7.53
2022-12-03T11:29:00.448Z,10.30
2022-12-03T11:31:09.784Z,8.43
2022-12-03T11:33:23.422Z,8.07
2022-12-03T11:35:24.981Z,5.55
2022-12-03T11:37:27.486Z,4.65
2022-12-03T11:39:48.066Z,6.03
2022-12-03T11:42:09.495Z,7.90
2022-12-03T11:44:27.719Z,7.68
2022-12-03T11:46:30.843Z,5.82
2022-12-03T11:48:32.451Z,9.10
2022-12-03T11:50:40.202Z,7.10
2022-12-03T11:52:42.885Z,8.98
2022-12-03T11:54:44.888Z,8.30
2022-12-03T11:56:49.014Z,7.75
2022-12-03T11:58:57.991Z,6.65
2022-12-03T12:01:00.520Z,7.95
2022-12-03T12:03:02.858Z,8.33
2022-12-03T12:05:23.165Z,9.20
2022-12-03T12:07:37.246Z,6.97
2022-12-03T12:09:53.049Z,5.72
2022-12-03T12:11:55.153Z,7.65
2022-12-03T12:13:56.671Z,6.80
2022-12-03T12:15:59.072Z,7.10
2022-12-03T12:18:19.214Z,8.02
2022-12-03T12:20:25.406Z,5.93
2022-12-03T12:22:26.854Z,7.50
2022-12-03T12:24:41.194Z,6.05
2022-12-03T12:26:50.243Z,6.70
2022-12-03T12:28:51.669Z,6.53
2022-12-03T12:31:11.690Z,10.60
2022-12-03T12:33:26.212Z,8.32
2022-12-03T12:35:28.638Z,7.43
2022-12-03T12:37:35.238Z,6.13
2022-12-03T12:39:36.881Z,6.50
2022-12-03T12:41:39.740Z,5.75
2022-12-03T12:43:41.206Z,6.65
2022-12-03T12:45:43.283Z,6.40
2022-12-03T12:47:49.936Z,6.07
2022-12-03T12:49:52.046Z,6.60
2022-12-03T12:51:53.879Z,8.25
2022-12-03T12:53:57.221Z,7.63
2022-12-03T12:56:00.370Z,6.73
2022-12-03T12:58:03.257Z,5.13
2022-12-03T13:00:05.004Z,5.38
2022-12-03T13:02:24.766Z,5.07
2022-12-03T13:04:27.451Z,9.90
2022-12-03T13:06:30.475Z,5.43
2022-12-03T13:08:33.725Z,4.65
2022-12-03T13:10:37.196Z,5.75
2022-12-03T13:12:39.158Z,7.80
2022-12-03T13:14:40.647Z,7.60
2022-12-03T13:16:42.257Z,7.78
2022-12-03T13:18:46.206Z,7.25
2022-12-03T13:20:49.253Z,5.43
2022-12-03T13:22:50.898Z,5.53
2022-12-03T13:27:38.077Z,8.63
2022-12-03T13:29:52.838Z,7.45
2022-12-03T13:32:06.950Z,5.80
2022-12-03T13:34:26.402Z,6.07
2022-12-03T13:37:10.480Z,6.30
2022-12-03T13:39:49.572Z,7.70
2022-12-03T13:42:33.016Z,6.28
2022-12-03T13:45:14.847Z,5.32
2022-12-03T13:47:46.106Z,6.93
2022-12-03T13:50:13.429Z,5.55
2022-12-03T13:52:49.456Z,8.45
2022-12-03T13:55:10.367Z,5.25
2022-12-03T13:57:23.180Z,4.45
2022-12-03T13:59:42.774Z,4.53
2022-12-03T14:02:01.928Z,3.75
2022-12-03T14:06:07.581Z,5.20
2022-12-03T14:08:09.051Z,6.13
2022-12-03T14:10:11.635Z,3.67
2022-12-03T14:12:30.233Z,3.70
2022-12-03T14:14:31.784Z,10.80
2022-12-03T14:16:33.287Z,6.07
2022-12-03T14:18:34.749Z,6.15
2022-12-03T14:20:36.552Z,8.27
2022-12-03T14:22:38.190Z,6.72
2022-12-03T14:24:42.350Z,8.27
2022-12-03T14:26:43.892Z,6.05
2022-12-03T14:28:45.343Z,6.75
2022-12-03T14:30:47.001Z,11.02
2022-12-03T14:32:48.765Z,6.95
2022-12-03T14:34:50.167Z,8.77
2022-12-03T14:36:51.601Z,6.65
2022-12-03T14:38:53.302Z,8.75
2022-12-03T14:40:54.784Z,8.32
2022-12-03T14:42:56.233Z,5.80
2022-12-03T14:44:57.879Z,6.13
2022-12-03T14:46:59.370Z,6.60
2022-12-03T14:49:00.958Z,8.20
2022-12-03T14:51:02.708Z,5.55
2022-12-03T14:53:04.189Z,6.05
2022-12-03T14:55:05.995Z,8.70
2022-12-03T14:57:07.896Z,8.02
2022-12-03T14:59:09.473Z,5.88
2022-12-03T15:01:11.276Z,6.10
2022-12-03T15:03:12.748Z,7.45
2022-12-03T15:05:14.317Z,8.30
2022-12-03T15:07:15.800Z,7.13
2022-12-03T15:09:17.235Z,10.05
2022-12-03T15:11:18.719Z,7.82
2022-12-03T15:13:20.238Z,7.22
2022-12-03T15:15:21.667Z,7.90
2022-12-03T15:17:31.013Z,8.05
2022-12-03T15:19:33.377Z,9.63
2022-12-03T15:21:35.037Z,7.93
2022-12-03T15:23:36.703Z,8.57
2022-12-03T15:25:38.688Z,6.03
2022-12-03T15:27:41.570Z,6.22
2022-12-03T15:29:43.057Z,5.68
2022-12-03T15:31:44.587Z,8.07
2022-12-03T15:33:46.267Z,6.55
2022-12-03T15:35:47.785Z,7.90
2022-12-03T15:37:49.246Z,9.43
2022-12-03T15:39:50.679Z,7.00
2022-12-03T15:41:52.176Z,7.57
2022-12-03T15:43:53.858Z,8.40
2022-12-03T15:45:55.706Z,7.72
2022-12-03T15:47:57.425Z,8.25
2022-12-03T15:49:58.863Z,7.97
2022-12-03T15:52:25.513Z,5.57
2022-12-03T15:54:27.076Z,8.13
2022-12-03T15:56:28.543Z,6.65
2022-12-03T15:58:30.387Z,8.00
2022-12-03T16:00:32.384Z,6.15
2022-12-03T16:02:34.125Z,5.10
2022-12-03T16:04:35.673Z,9.25
2022-12-03T16:06:40.626Z,9.35
2022-12-03T16:08:42.147Z,6.13
2022-12-03T16:10:43.719Z,12.52
2022-12-03T16:12:45.266Z,11.32
2022-12-03T16:14:46.705Z,10.00
2022-12-03T16:16:51.532Z,5.32
2022-12-03T16:18:54.045Z,7.85
2022-12-03T16:20:55.855Z,12.75
2022-12-03T16:22:57.367Z,10.77
2022-12-03T16:24:58.855Z,5.35
2022-12-03T16:27:00.518Z,8.90
2022-12-03T16:29:01.943Z,7.55
2022-12-03T16:31:03.852Z,6.95
2022-12-03T16:33:28.052Z,5.40
2022-12-03T16:35:40.995Z,5.82
2022-12-03T16:37:52.882Z,7.30
2022-12-03T16:40:13.497Z,6.55
2022-12-03T16:42:34.754Z,7.65
2022-12-03T16:45:09.353Z,7.28
2022-12-03T16:47:19.898Z,6.10
2022-12-03T16:49:42.994Z,8.95
2022-12-03T16:52:06.313Z,9.63
2022-12-03T16:54:21.317Z,12.50
2022-12-03T16:56:39.713Z,13.25
2022-12-03T16:58:58.957Z,16.70
2022-12-03T17:01:15.568Z,13.77
2022-12-03T17:03:35.219Z,10.10
2022-12-03T17:05:51.791Z,10.25
2022-12-03T17:07:53.315Z,17.17
2022-12-03T17:09:55.087Z,13.65
2022-12-03T17:11:56.742Z,14.05
2022-12-03T17:13:58.152Z,13.00
2022-12-03T17:16:00.852Z,13.73
2022-12-03T17:18:03.715Z,10.70
2022-12-03T17:20:06.383Z,16.48
2022-12-03T17:22:07.847Z,11.25
2022-12-03T17:24:09.388Z,12.27
2022-12-03T17:26:10.780Z,11.45
2022-12-03T17:28:12.240Z,11.63
2022-12-03T17:30:15.548Z,11.07
2022-12-03T17:32:16.995Z,16.83
2022-12-03T17:34:18.464Z,10.82
2022-12-03T17:36:19.875Z,18.92
2022-12-03T17:38:21.314Z,11.55
2022-12-03T17:40:22.897Z,10.95
2022-12-03T17:42:24.382Z,12.38
2022-12-03T17:44:26.099Z,10.30
2022-12-03T17:46:27.748Z,13.93
2022-12-03T17:48:31.125Z,19.90
2022-12-03T17:50:32.646Z,27.88
2022-12-03T17:52:34.331Z,22.67
2022-12-03T17:55:01.856Z,19.52
2022-12-03T17:56:57.192Z,20.25
2022-12-03T17:58:58.872Z,20.00
2022-12-03T18:01:02.860Z,16.98
2022-12-03T18:03:05.034Z,23.65
2022-12-03T18:05:06.611Z,19.58
2022-12-03T18:07:08.342Z,17.33
2022-12-03T18:09:09.829Z,22.73
2022-12-03T18:11:11.718Z,18.13
2022-12-03T18:13:13.224Z,16.67
2022-12-03T18:15:15.010Z,19.58
2022-12-03T18:17:16.472Z,17.58
2022-12-03T18:19:18.241Z,21.60
2022-12-03T18:21:19.986Z,20.15
2022-12-03T18:23:21.778Z,19.98
2022-12-03T18:25:23.187Z,16.50
2022-12-03T18:27:24.830Z,16.85
2022-12-03T18:29:26.266Z,15.23
2022-12-03T18:31:28.203Z,17.00
2022-12-03T18:33:29.939Z,15.25
2022-12-03T18:35:31.409Z,16.10
2022-12-03T18:37:33.176Z,13.32
2022-12-03T18:39:35.757Z,12.18
2022-12-03T18:41:37.566Z,11.20
2022-12-03T18:43:41.436Z,17.95
2022-12-03T18:45:43.332Z,10.90
2022-12-03T18:47:45.053Z,11.77
2022-12-03T18:49:46.761Z,15.32
2022-12-03T18:51:48.581Z,16.33
2022-12-03T18:53:51.376Z,15.07
2022-12-03T18:55:52.870Z,12.20
2022-12-03T18:57:54.552Z,14.10
2022-12-03T18:59:56.380Z,12.30
2022-12-03T19:01:58.006Z,14.38
2022-12-03T19:03:59.629Z,10.70
2022-12-03T19:06:01.108Z,14.60
2022-12-03T19:08:03.024Z,12.50
2022-12-03T19:10:05.051Z,12.55
2022-12-03T19:12:12.886Z,14.32
2022-12-03T19:14:16.168Z,9.93
2022-12-03T19:16:17.723Z,9.95
2022-12-03T19:18:19.180Z,9.63
2022-12-03T19:20:20.668Z,11.10
2022-12-03T19:22:22.174Z,11.75
2022-12-03T19:24:25.077Z,12.23
2022-12-03T19:26:27.076Z,16.38
2022-12-03T19:28:28.927Z,14.55
2022-12-03T19:30:30.505Z,17.48
2022-12-03T19:32:32.055Z,13.68
2022-12-03T19:34:33.518Z,19.88
2022-12-03T19:36:34.994Z,12.55
2022-12-03T19:38:42.621Z,14.23
2022-12-03T19:40:46.699Z,14.13
2022-12-03T19:43:00.829Z,16.25
2022-12-03T19:45:18.835Z,17.05
2022-12-03T19:47:32.679Z,15.82
2022-12-03T19:49:45.165Z,17.85
2022-12-03T19:51:58.579Z,17.48
2022-12-03T19:54:13.614Z,18.30
2022-12-03T19:56:26.598Z,13.73
2022-12-03T19:58:40.123Z,11.98
2022-12-03T20:00:54.444Z,10.63
2022-12-03T20:03:04.948Z,10.43
2022-12-03T20:05:16.241Z,9.13
2022-12-03T20:07:25.820Z,12.20
2022-12-03T20:09:38.027Z,14.45
2022-12-03T20:11:51.517Z,11.82
2022-12-03T20:14:05.697Z,17.15
2022-12-03T20:16:12.553Z,15.20
2022-12-03T20:18:14.237Z,18.13
2022-12-03T20:20:15.684Z,17.70
2022-12-03T20:22:17.075Z,16.27
2022-12-03T20:24:19.304Z,15.63
2022-12-03T20:26:21.306Z,12.80
2022-12-03T20:28:23.007Z,16.42
2022-12-03T20:30:24.927Z,20.98
2022-12-03T20:32:26.505Z,12.77
2022-12-03T20:34:27.964Z,20.02
2022-12-03T20:36:30.234Z,21.33
2022-12-03T20:38:34.503Z,20.92
2022-12-03T20:42:37.609Z,19.38
2022-12-03T20:44:39.113Z,18.25
2022-12-03T20:46:40.617Z,23.27
2022-12-03T20:48:42.731Z,22.73
2022-12-03T20:50:44.495Z,17.42
2022-12-03T20:53:09.406Z,27.63
2022-12-03T20:55:07.581Z,30.80
2022-12-03T20:57:09.290Z,21.98
2022-12-03T20:59:12.183Z,18.90
2022-12-03T21:01:16.211Z,23.15
2022-12-03T21:05:19.263Z,26.08
2022-12-03T21:07:20.664Z,27.95
2022-12-03T21:09:22.219Z,28.45
2022-12-03T21:11:25.435Z,27.58
2022-12-03T21:13:31.016Z,30.70
2022-12-03T21:15:33.956Z,23.50
2022-12-03T21:17:35.368Z,26.70
2022-12-03T21:19:37.007Z,25.27
2022-12-03T21:22:03.357Z,26.65
2022-12-03T21:24:04.911Z,31.80
2022-12-03T21:26:31.669Z,23.48
2022-12-03T21:28:33.659Z,25.45
2022-12-03T21:30:37.784Z,24.05
2022-12-03T21:34:41.843Z,33.05
2022-12-03T21:36:43.288Z,29.08
2022-12-03T21:38:45.106Z,36.92
2022-12-03T21:40:47.794Z,23.45
2022-12-03T21:42:49.267Z,32.67
2022-12-03T21:44:50.707Z,24.38
2022-12-03T21:47:11.639Z,29.10
2022-12-03T21:49:14.484Z,31.17
2022-12-03T21:51:16.929Z,27.38
2022-12-03T21:53:18.377Z,24.27
2022-12-03T21:55:20.096Z,28.92
2022-12-03T21:57:21.863Z,25.65
2022-12-03T21:59:23.307Z,30.98
2022-12-03T22:01:25.091Z,23.27
2022-12-03T22:03:26.831Z,24.48
2022-12-03T22:05:28.286Z,25.05
2022-12-03T22:07:32.055Z,33.83
2022-12-03T22:09:33.512Z,36.03
2022-12-03T22:11:34.947Z,31.13
2022-12-03T22:13:40.167Z,27.52
2022-12-03T22:15:41.677Z,28.33
2022-12-03T22:17:43.134Z,30.58
2022-12-03T22:19:44.605Z,32.13
2022-12-03T22:21:46.657Z,26.48
2022-12-03T22:23:48.417Z,27.63
2022-12-03T22:25:58.117Z,26.40
2022-12-03T22:27:59.590Z,26.58
2022-12-03T22:30:01.147Z,23.13
2022-12-03T22:32:02.646Z,25.90
2022-12-03T22:34:04.652Z,23.75
2022-12-03T22:36:07.922Z,22.92
2022-12-03T22:38:09.506Z,22.02
2022-12-03T22:40:11.266Z,19.20
2022-12-03T22:42:12.778Z,25.67
2022-12-03T22:44:16.227Z,19.77
2022-12-03T22:46:18.966Z,18.60
2022-12-03T22:48:29.756Z,18.55
2022-12-03T22:50:53.632Z,17.90
2022-12-03T22:53:08.291Z,16.23
2022-12-03T22:55:23.983Z,13.27
2022-12-03T22:57:40.531Z,13.88
2022-12-03T22:59:58.305Z,15.23
2022-12-03T23:02:14.853Z,10.75
2022-12-03T23:04:34.040Z,16.02
2022-12-03T23:06:51.376Z,13.07
2022-12-03T23:09:11.448Z,11.25
2022-12-03T23:11:27.685Z,13.43
2022-12-03T23:13:39.970Z,19.52
2022-12-03T23:16:02.915Z,12.67
2022-12-03T23:18:17.923Z,16.48
2022-12-03T23:20:35.625Z,14.75
2022-12-03T23:22:41.049Z,11.85
2022-12-03T23:24:42.567Z,15.70
2022-12-03T23:26:44.100Z,17.90
2022-12-03T23:28:46.081Z,14.20
2022-12-03T23:30:47.572Z,13.70
2022-12-03T23:32:49.172Z,13.20
2022-12-03T23:34:52.939Z,16.00
2022-12-03T23:36:54.448Z,13.93
2022-12-03T23:38:55.967Z,14.95
2022-12-03T23:40:57.382Z,11.45
2022-12-03T23:42:58.922Z,15.90
2022-12-03T23:45:00.323Z,14.07
2022-12-03T23:47:02.316Z,21.20
2022-12-03T23:49:03.866Z,15.57
2022-12-03T23:51:13.149Z,19.38
2022-12-03T23:53:14.737Z,17.40
2022-12-03T23:55:16.434Z,21.33
2022-12-03T23:57:18.415Z,16.33
2022-12-03T23:59:20.128Z,18.90
